Decoded Metar for KBLV (BELLEVILLE in IL, USA) (IATA:BLV) | Meteo·Mobile Aviation Weather
aviador You're here:

KBLV Decoded Metar

BELLEVILLE in IL, USA
Report Time2018-08-21 04:56:00
UTC Time2018-08-21 05:39:42
Flight Rules vfr VFR
Wind250° at 04 kt
W.Decomp.*RWY 32: 1.2 kt HW 3.8 kt LCW
W.Rank250° ranks 28
Current wind is below 250° avg. (7.1)
Visibility9999 m
Phenomena:N/A
Clouds:Few 055 Hf
Scattered 075 Hf
Expected CloudBase > 400 ft AGL from Temp-Dew spread
CeilingNone
Temp21°C (ISA +7)
Dew Point20°C (94% RH)
QNH1009 hPa
Density Alt1,703 ft
Elevation453 ft
Report Wrong Elevation
Raw Report
KBLV 210456Z AUTO 25004KT 10SM FEW055 SCT075 21/20 A2979 RMK AO2
DZB19E28 SLP087 P0000 T02120200 $=

Extra information for KBLV:More info

Metar Taf Metar & Taf Last 4 Metars F.Rules Stats Wind Profile Meteogram Temp Stats Airport Information Weather charts Add Link Nearby VenuesMetar ALERT Operation Metar Decoded Social comments

AIRNAV info for KBLV